Delta Billie — WDE8059 — position and weather

sailwx.info

Track history (hours):
 
Tides and Currents Weather Stations Pressure Air Temp Water Temp Dewpoint Dewpoint Depression Visibility Wind Speed Wind Dir Waves Ship Positions

Delta Billie

Owner: Baydelta Maritime, San Francicso, CA. More information available from US FCC via Universal Licensing System and Coast Guard Vessel Documentation Center.

Last reported at 2016-Apr-30 16:25 UTC. Time now 2016-Apr-30 16:50 UTC.
Position N 37°48' W 122°24'.

Length 30 m; draft 5.5 m.

Type: Towing. MMSI: 367401030.

Date/timePositionNaut miles runAvg speedWind from/ knotsBaromVisibWave heightAir tempDewpointWater temp
2016-Apr-30 16:25N 37°48' W 122°24'0 0.0
2016-Apr-30 15:33N 37°48' W 122°24'0 0.0
2016-Apr-30 14:33N 37°48' W 122°24'0 0.0
2016-Apr-30 13:33N 37°48' W 122°24'0 0.0
2016-Apr-30 12:33N 37°48' W 122°24'0 0.0
2016-Apr-30 11:33N 37°48' W 122°24'0 0.0
2016-Apr-30 10:34N 37°48' W 122°24'2 2.1
2016-Apr-30 09:34N 37°49' W 122°26'1 1.4
2016-Apr-30 08:34N 37°50' W 122°28'7 6.9
2016-Apr-30 07:33N 37°46' W 122°20'0 0.2
2016-Apr-30 06:34N 37°46' W 122°21'2 1.6
2016-Apr-30 05:34N 37°47' W 122°22'2 1.6
2016-Apr-30 04:33N 37°48' W 122°24'0 0.0
2016-Apr-30 03:31N 37°48' W 122°24'0 0.0
2016-Apr-30 02:32N 37°48' W 122°24'0 0.0
2016-Apr-30 01:33N 37°48' W 122°24'0 0.0
2016-Apr-30 00:33N 37°48' W 122°24'0 0.0
2016-Apr-29 23:33N 37°48' W 122°24'0 0.0
2016-Apr-29 22:33N 37°48' W 122°24'2 1.8
2016-Apr-29 21:34N 37°50' W 122°24'10 9.7
2016-Apr-29 20:29N 38°00' W 122°24'9 0.3
2016-Apr-28 12:21N 38°04' W 122°13'910.0
2016-Apr-28 11:26N 38°01' W 122°24'9 9.7
2016-Apr-28 10:33N 37°52' W 122°25'6 5.9
2016-Apr-28 09:33N 37°49' W 122°31'1 1.1
2016-Apr-28 08:33N 37°49' W 122°30'5 5.2
2016-Apr-28 07:33N 37°53' W 122°26'9 8.8
2016-Apr-28 06:33N 38°02' W 122°22'9 0.5
2016-Apr-27 11:05N 38°03' W 122°11'610.7
2016-Apr-27 10:30N 38°03' W 122°19'9 9.6
2016-Apr-27 09:33N 37°56' W 122°25'3 3.3
2016-Apr-27 08:33N 37°52' W 122°25'4 4.3
2016-Apr-27 07:33N 37°48' W 122°24'0 0.0
2016-Apr-27 06:33N 37°48' W 122°24'0 0.0
2016-Apr-27 05:33N 37°48' W 122°24'0 0.0
2016-Apr-27 04:33N 37°48' W 122°24'0 0.0
2016-Apr-27 03:33N 37°48' W 122°24'0 0.0
2016-Apr-27 02:33N 37°48' W 122°24'0 0.0
2016-Apr-27 01:33N 37°48' W 122°24'0 0.0
2016-Apr-27 00:33N 37°48' W 122°24'0 0.0
2016-Apr-26 23:33N 37°48' W 122°24'4 4.4
2016-Apr-26 22:33N 37°52' W 122°25'3 2.8
2016-Apr-26 21:33N 37°55' W 122°25'5 4.8
2016-Apr-26 20:33N 37°51' W 122°26'4 4.0
2016-Apr-26 19:33N 37°48' W 122°30'4 4.3
2016-Apr-26 18:33N 37°49' W 122°24'5 5.1
2016-Apr-26 17:33N 37°48' W 122°18'4 3.9
2016-Apr-26 16:33N 37°48' W 122°23'1 0.9
2016-Apr-26 15:33N 37°48' W 122°24'0 0.0
2016-Apr-26 14:33N 37°48' W 122°24'0 0.0
2016-Apr-26 13:33N 37°48' W 122°24'0 0.0
2016-Apr-26 12:33N 37°48' W 122°24'0 0.0
2016-Apr-26 11:33N 37°48' W 122°24'0 0.0
2016-Apr-26 10:33N 37°48' W 122°24'0 0.0
2016-Apr-26 09:33N 37°48' W 122°24'0 0.0
2016-Apr-26 08:33N 37°48' W 122°24'0 0.0
2016-Apr-26 07:33N 37°48' W 122°24'0 0.0
2016-Apr-26 06:33N 37°48' W 122°24'0 0.0
2016-Apr-26 05:33N 37°48' W 122°24'3 2.6
2016-Apr-26 04:33N 37°51' W 122°24'5 4.6
2016-Apr-26 03:33N 37°55' W 122°25'5 5.4
2016-Apr-26 02:33N 38°01' W 122°24'0 0.1
2016-Apr-25 22:20N 38°01' W 122°24'6 8.0
2016-Apr-25 21:33N 37°55' W 122°27'6 5.6
2016-Apr-25 20:33N 37°50' W 122°28'2 1.6
2016-Apr-25 19:33N 37°49' W 122°30'5 4.7
2016-Apr-25 18:33N 37°48' W 122°24'0 0.0
2016-Apr-25 17:33N 37°48' W 122°24'0 0.0
2016-Apr-25 16:33N 37°48' W 122°24'0 0.0
2016-Apr-25 15:33N 37°48' W 122°24'5 5.2
2016-Apr-25 14:33N 37°48' W 122°17'1 0.7
2016-Apr-25 13:33N 37°48' W 122°18'0 0.3
2016-Apr-25 12:33N 37°48' W 122°19'1 0.7
2016-Apr-25 11:34N 37°47' W 122°18'2 1.9
2016-Apr-25 10:33N 37°48' W 122°20'3 2.9
2016-Apr-25 09:33N 37°48' W 122°24'0 0.0
2016-Apr-25 08:33N 37°48' W 122°24'0 0.0
2016-Apr-25 07:33N 37°48' W 122°24'0 0.0
2016-Apr-25 06:33N 37°48' W 122°24'0 0.0
2016-Apr-25 05:33N 37°48' W 122°24'0 0.0
2016-Apr-25 04:33N 37°48' W 122°24'0 0.0
2016-Apr-25 03:33N 37°48' W 122°24'0 0.0
2016-Apr-25 02:33N 37°48' W 122°24'1 0.9
2016-Apr-25 01:33N 37°48' W 122°23'4 4.1
2016-Apr-25 00:34N 37°48' W 122°18'1 1.2
2016-Apr-24 23:33N 37°48' W 122°19'1 1.0
2016-Apr-24 22:33N 37°49' W 122°20'3 3.3
2016-Apr-24 21:33N 37°48' W 122°24'0 0.0
2016-Apr-24 20:33N 37°48' W 122°24'2 1.8
2016-Apr-24 19:33N 37°47' W 122°23'7 7.2
2016-Apr-24 18:32N 37°49' W 122°32'4 4.4
2016-Apr-24 17:33N 37°49' W 122°26'2 1.9
2016-Apr-24 16:33N 37°48' W 122°24'0 0.0
2016-Apr-24 15:33N 37°48' W 122°24'0 0.0
2016-Apr-24 14:33N 37°48' W 122°24'0 0.0
2016-Apr-24 13:33N 37°48' W 122°24'5 5.3
2016-Apr-24 12:33N 37°48' W 122°17'1 1.4
2016-Apr-24 11:33N 37°48' W 122°19'0 0.4
2016-Apr-24 10:33N 37°48' W 122°19'1 0.9
2016-Apr-24 09:33N 37°48' W 122°20'3 3.4
2016-Apr-24 08:33N 37°48' W 122°24'0 0.0
2016-Apr-24 07:33N 37°48' W 122°24'0 0.0
2016-Apr-24 06:33N 37°48' W 122°24'0 0.0
2016-Apr-24 05:33N 37°48' W 122°24'0 0.0
2016-Apr-24 04:33N 37°48' W 122°24'9 8.8
2016-Apr-24 03:33N 37°57' W 122°26'1010.1
2016-Apr-24 02:33N 38°03' W 122°16'2 0.2
2016-Apr-23 17:15N 38°03' W 122°18'3 1.4
2016-Apr-23 15:11N 38°04' W 122°15'0 0.3
2016-Apr-23 14:33N 38°04' W 122°15'11 5.8
2016-Apr-23 12:33N 37°57' W 122°27'8 7.8
2016-Apr-23 11:33N 37°50' W 122°24'3 2.8
2016-Apr-23 10:33N 37°47' W 122°22'1 1.4
2016-Apr-23 09:33N 37°48' W 122°24'0 0.0
2016-Apr-23 08:33N 37°48' W 122°24'0 0.0
2016-Apr-23 07:33N 37°48' W 122°24'0 0.0
2016-Apr-23 06:33N 37°48' W 122°24'0 0.0
2016-Apr-23 05:33N 37°48' W 122°24'0 0.0
2016-Apr-23 04:33N 37°48' W 122°24'0 0.0
2016-Apr-23 03:33N 37°48' W 122°24'4 3.8
2016-Apr-23 02:33N 37°48' W 122°19'2 2.1
2016-Apr-23 01:33N 37°48' W 122°22'2 2.0
2016-Apr-23 00:33N 37°48' W 122°19'1 1.5
2016-Apr-22 23:33N 37°48' W 122°18'5 4.7
2016-Apr-22 22:33N 37°48' W 122°23'0 0.4
2016-Apr-22 21:33N 37°48' W 122°24'0 0.0
2016-Apr-22 20:33N 37°48' W 122°24'4 4.1
2016-Apr-22 19:33N 37°48' W 122°29'2 2.2
2016-Apr-22 18:33N 37°50' W 122°27'6 5.7
2016-Apr-22 17:33N 37°56' W 122°27'7 7.3
2016-Apr-22 16:33N 38°02' W 122°22'5 0.6
2016-Apr-22 07:33N 38°03' W 122°16'0 0.0
2016-Apr-22 04:28N 38°03' W 122°16'6 0.3
2016-Apr-21 05:22N 38°02' W 122°08'  
Track history (hours):
 
Tides and Currents Weather Stations Pressure Air Temp Water Temp Dewpoint Dewpoint Depression Visibility Wind Speed Wind Dir Waves Ship Positions

Delta Billie

Owner: Baydelta Maritime, San Francicso, CA. More information available from US FCC via Universal Licensing System and Coast Guard Vessel Documentation Center.

Last reported at 2016-Apr-30 16:25 UTC. Time now 2016-Apr-30 16:50 UTC.
Position N 37°48' W 122°24'.

Length 30 m; draft 5.5 m.

Type: Towing. MMSI: 367401030.

Date/timePositionNaut miles runAvg speedWind from/ knotsBaromVisibWave heightAir tempDewpointWater temp
2016-Apr-30 16:25N 37°48' W 122°24'0 0.0
2016-Apr-30 15:33N 37°48' W 122°24'0 0.0
2016-Apr-30 14:33N 37°48' W 122°24'0 0.0
2016-Apr-30 13:33N 37°48' W 122°24'0 0.0
2016-Apr-30 12:33N 37°48' W 122°24'0 0.0
2016-Apr-30 11:33N 37°48' W 122°24'0 0.0
2016-Apr-30 10:34N 37°48' W 122°24'2 2.1
2016-Apr-30 09:34N 37°49' W 122°26'1 1.4
2016-Apr-30 08:34N 37°50' W 122°28'7 6.9
2016-Apr-30 07:33N 37°46' W 122°20'0 0.2
2016-Apr-30 06:34N 37°46' W 122°21'2 1.6
2016-Apr-30 05:34N 37°47' W 122°22'2 1.6
2016-Apr-30 04:33N 37°48' W 122°24'0 0.0
2016-Apr-30 03:31N 37°48' W 122°24'0 0.0
2016-Apr-30 02:32N 37°48' W 122°24'0 0.0
2016-Apr-30 01:33N 37°48' W 122°24'0 0.0
2016-Apr-30 00:33N 37°48' W 122°24'0 0.0
2016-Apr-29 23:33N 37°48' W 122°24'0 0.0
2016-Apr-29 22:33N 37°48' W 122°24'2 1.8
2016-Apr-29 21:34N 37°50' W 122°24'10 9.7
2016-Apr-29 20:29N 38°00' W 122°24'9 0.3
2016-Apr-28 12:21N 38°04' W 122°13'910.0
2016-Apr-28 11:26N 38°01' W 122°24'9 9.7
2016-Apr-28 10:33N 37°52' W 122°25'6 5.9
2016-Apr-28 09:33N 37°49' W 122°31'1 1.1
2016-Apr-28 08:33N 37°49' W 122°30'5 5.2
2016-Apr-28 07:33N 37°53' W 122°26'9 8.8
2016-Apr-28 06:33N 38°02' W 122°22'9 0.5
2016-Apr-27 11:05N 38°03' W 122°11'610.7
2016-Apr-27 10:30N 38°03' W 122°19'9 9.6
2016-Apr-27 09:33N 37°56' W 122°25'3 3.3
2016-Apr-27 08:33N 37°52' W 122°25'4 4.3
2016-Apr-27 07:33N 37°48' W 122°24'0 0.0
2016-Apr-27 06:33N 37°48' W 122°24'0 0.0
2016-Apr-27 05:33N 37°48' W 122°24'0 0.0
2016-Apr-27 04:33N 37°48' W 122°24'0 0.0
2016-Apr-27 03:33N 37°48' W 122°24'0 0.0
2016-Apr-27 02:33N 37°48' W 122°24'0 0.0
2016-Apr-27 01:33N 37°48' W 122°24'0 0.0
2016-Apr-27 00:33N 37°48' W 122°24'0 0.0
2016-Apr-26 23:33N 37°48' W 122°24'4 4.4
2016-Apr-26 22:33N 37°52' W 122°25'3 2.8
2016-Apr-26 21:33N 37°55' W 122°25'5 4.8
2016-Apr-26 20:33N 37°51' W 122°26'4 4.0
2016-Apr-26 19:33N 37°48' W 122°30'4 4.3
2016-Apr-26 18:33N 37°49' W 122°24'5 5.1
2016-Apr-26 17:33N 37°48' W 122°18'4 3.9
2016-Apr-26 16:33N 37°48' W 122°23'1 0.9
2016-Apr-26 15:33N 37°48' W 122°24'0 0.0
2016-Apr-26 14:33N 37°48' W 122°24'0 0.0
2016-Apr-26 13:33N 37°48' W 122°24'0 0.0
2016-Apr-26 12:33N 37°48' W 122°24'0 0.0
2016-Apr-26 11:33N 37°48' W 122°24'0 0.0
2016-Apr-26 10:33N 37°48' W 122°24'0 0.0
2016-Apr-26 09:33N 37°48' W 122°24'0 0.0
2016-Apr-26 08:33N 37°48' W 122°24'0 0.0
2016-Apr-26 07:33N 37°48' W 122°24'0 0.0
2016-Apr-26 06:33N 37°48' W 122°24'0 0.0
2016-Apr-26 05:33N 37°48' W 122°24'3 2.6
2016-Apr-26 04:33N 37°51' W 122°24'5 4.6
2016-Apr-26 03:33N 37°55' W 122°25'5 5.4
2016-Apr-26 02:33N 38°01' W 122°24'0 0.1
2016-Apr-25 22:20N 38°01' W 122°24'6 8.0
2016-Apr-25 21:33N 37°55' W 122°27'6 5.6
2016-Apr-25 20:33N 37°50' W 122°28'2 1.6
2016-Apr-25 19:33N 37°49' W 122°30'5 4.7
2016-Apr-25 18:33N 37°48' W 122°24'0 0.0
2016-Apr-25 17:33N 37°48' W 122°24'0 0.0
2016-Apr-25 16:33N 37°48' W 122°24'0 0.0
2016-Apr-25 15:33N 37°48' W 122°24'5 5.2
2016-Apr-25 14:33N 37°48' W 122°17'1 0.7
2016-Apr-25 13:33N 37°48' W 122°18'0 0.3
2016-Apr-25 12:33N 37°48' W 122°19'1 0.7
2016-Apr-25 11:34N 37°47' W 122°18'2 1.9
2016-Apr-25 10:33N 37°48' W 122°20'3 2.9
2016-Apr-25 09:33N 37°48' W 122°24'0 0.0
2016-Apr-25 08:33N 37°48' W 122°24'0 0.0
2016-Apr-25 07:33N 37°48' W 122°24'0 0.0
2016-Apr-25 06:33N 37°48' W 122°24'0 0.0
2016-Apr-25 05:33N 37°48' W 122°24'0 0.0
2016-Apr-25 04:33N 37°48' W 122°24'0 0.0
2016-Apr-25 03:33N 37°48' W 122°24'0 0.0
2016-Apr-25 02:33N 37°48' W 122°24'1 0.9
2016-Apr-25 01:33N 37°48' W 122°23'4 4.1
2016-Apr-25 00:34N 37°48' W 122°18'1 1.2
2016-Apr-24 23:33N 37°48' W 122°19'1 1.0
2016-Apr-24 22:33N 37°49' W 122°20'3 3.3
2016-Apr-24 21:33N 37°48' W 122°24'0 0.0
2016-Apr-24 20:33N 37°48' W 122°24'2 1.8
2016-Apr-24 19:33N 37°47' W 122°23'7 7.2
2016-Apr-24 18:32N 37°49' W 122°32'4 4.4
2016-Apr-24 17:33N 37°49' W 122°26'2 1.9
2016-Apr-24 16:33N 37°48' W 122°24'0 0.0
2016-Apr-24 15:33N 37°48' W 122°24'0 0.0
2016-Apr-24 14:33N 37°48' W 122°24'0 0.0
2016-Apr-24 13:33N 37°48' W 122°24'5 5.3
2016-Apr-24 12:33N 37°48' W 122°17'1 1.4
2016-Apr-24 11:33N 37°48' W 122°19'0 0.4
2016-Apr-24 10:33N 37°48' W 122°19'1 0.9
2016-Apr-24 09:33N 37°48' W 122°20'3 3.4
2016-Apr-24 08:33N 37°48' W 122°24'0 0.0
2016-Apr-24 07:33N 37°48' W 122°24'0 0.0
2016-Apr-24 06:33N 37°48' W 122°24'0 0.0
2016-Apr-24 05:33N 37°48' W 122°24'0 0.0
2016-Apr-24 04:33N 37°48' W 122°24'9 8.8
2016-Apr-24 03:33N 37°57' W 122°26'1010.1
2016-Apr-24 02:33N 38°03' W 122°16'2 0.2
2016-Apr-23 17:15N 38°03' W 122°18'3 1.4
2016-Apr-23 15:11N 38°04' W 122°15'0 0.3
2016-Apr-23 14:33N 38°04' W 122°15'11 5.8
2016-Apr-23 12:33N 37°57' W 122°27'8 7.8
2016-Apr-23 11:33N 37°50' W 122°24'3 2.8
2016-Apr-23 10:33N 37°47' W 122°22'1 1.4
2016-Apr-23 09:33N 37°48' W 122°24'0 0.0
2016-Apr-23 08:33N 37°48' W 122°24'0 0.0
2016-Apr-23 07:33N 37°48' W 122°24'0 0.0
2016-Apr-23 06:33N 37°48' W 122°24'0 0.0
2016-Apr-23 05:33N 37°48' W 122°24'0 0.0
2016-Apr-23 04:33N 37°48' W 122°24'0 0.0
2016-Apr-23 03:33N 37°48' W 122°24'4 3.8
2016-Apr-23 02:33N 37°48' W 122°19'2 2.1
2016-Apr-23 01:33N 37°48' W 122°22'2 2.0
2016-Apr-23 00:33N 37°48' W 122°19'1 1.5
2016-Apr-22 23:33N 37°48' W 122°18'5 4.7
2016-Apr-22 22:33N 37°48' W 122°23'0 0.4
2016-Apr-22 21:33N 37°48' W 122°24'0 0.0
2016-Apr-22 20:33N 37°48' W 122°24'4 4.1
2016-Apr-22 19:33N 37°48' W 122°29'2 2.2
2016-Apr-22 18:33N 37°50' W 122°27'6 5.7
2016-Apr-22 17:33N 37°56' W 122°27'7 7.3
2016-Apr-22 16:33N 38°02' W 122°22'5 0.6
2016-Apr-22 07:33N 38°03' W 122°16'0 0.0
2016-Apr-22 04:28N 38°03' W 122°16'6 0.3
2016-Apr-21 05:22N 38°02' W 122°08'  

Dump ship's entire track history